sensor_id;sensor_type;location;lat;lon;timestamp;P1;durP1;ratioP1;P2;durP2;ratioP2
43652;SDS011;29249;56.078;92.850;2022-07-09T00:00:58;7.80;;;4.10;;
43652;SDS011;29249;56.078;92.850;2022-07-09T00:03:25;4.80;;;3.58;;
43652;SDS011;29249;56.078;92.850;2022-07-09T00:05:51;4.97;;;4.47;;
43652;SDS011;29249;56.078;92.850;2022-07-09T00:08:16;5.18;;;4.40;;
43652;SDS011;29249;56.078;92.850;2022-07-09T00:10:42;14.40;;;5.38;;
43652;SDS011;29249;56.078;92.850;2022-07-09T00:13:08;7.40;;;5.07;;
43652;SDS011;29249;56.078;92.850;2022-07-09T00:15:34;4.75;;;3.97;;
43652;SDS011;29249;56.078;92.850;2022-07-09T00:18:00;8.15;;;4.03;;
43652;SDS011;29249;56.078;92.850;2022-07-09T00:20:25;9.07;;;4.78;;
43652;SDS011;29249;56.078;92.850;2022-07-09T00:22:51;5.93;;;4.15;;
43652;SDS011;29249;56.078;92.850;2022-07-09T00:25:17;5.85;;;4.72;;
43652;SDS011;29249;56.078;92.850;2022-07-09T00:27:43;4.53;;;3.78;;
43652;SDS011;29249;56.078;92.850;2022-07-09T00:30:09;8.32;;;4.53;;
43652;SDS011;29249;56.078;92.850;2022-07-09T00:32:35;8.40;;;4.95;;
43652;SDS011;29249;56.078;92.850;2022-07-09T00:35:01;7.10;;;3.72;;
43652;SDS011;29249;56.078;92.850;2022-07-09T00:37:26;10.65;;;4.35;;
43652;SDS011;29249;56.078;92.850;2022-07-09T00:39:52;6.90;;;4.80;;
43652;SDS011;29249;56.078;92.850;2022-07-09T00:42:18;11.85;;;5.75;;
43652;SDS011;29249;56.078;92.850;2022-07-09T00:44:44;27.77;;;8.25;;
43652;SDS011;29249;56.078;92.850;2022-07-09T00:47:10;16.58;;;5.68;;
43652;SDS011;29249;56.078;92.850;2022-07-09T00:49:38;10.48;;;5.03;;
43652;SDS011;29249;56.078;92.850;2022-07-09T00:52:05;10.65;;;5.13;;
43652;SDS011;29249;56.078;92.850;2022-07-09T00:54:32;4.75;;;4.15;;
43652;SDS011;29249;56.078;92.850;2022-07-09T00:57:00;6.05;;;4.57;;
43652;SDS011;29249;56.078;92.850;2022-07-09T00:59:28;9.07;;;4.30;;
43652;SDS011;29249;56.078;92.850;2022-07-09T01:01:54;7.30;;;3.33;;
43652;SDS011;29249;56.078;92.850;2022-07-09T01:04:20;5.93;;;3.38;;
43652;SDS011;29249;56.078;92.850;2022-07-09T01:06:46;3.60;;;2.75;;
43652;SDS011;29249;56.078;92.850;2022-07-09T01:09:11;4.72;;;3.22;;
43652;SDS011;29249;56.078;92.850;2022-07-09T01:11:37;4.45;;;3.17;;
43652;SDS011;29249;56.078;92.850;2022-07-09T01:14:03;3.15;;;2.70;;
43652;SDS011;29249;56.078;92.850;2022-07-09T01:16:33;4.15;;;2.78;;
43652;SDS011;29249;56.078;92.850;2022-07-09T01:19:00;5.03;;;2.65;;
43652;SDS011;29249;56.078;92.850;2022-07-09T01:21:26;3.40;;;3.08;;
43652;SDS011;29249;56.078;92.850;2022-07-09T01:23:52;7.20;;;2.83;;
43652;SDS011;29249;56.078;92.850;2022-07-09T01:26:18;2.90;;;2.60;;
43652;SDS011;29249;56.078;92.850;2022-07-09T01:28:44;6.10;;;3.03;;
43652;SDS011;29249;56.078;92.850;2022-07-09T01:31:09;3.78;;;3.33;;
43652;SDS011;29249;56.078;92.850;2022-07-09T01:33:35;3.45;;;2.55;;
43652;SDS011;29249;56.078;92.850;2022-07-09T01:36:01;5.00;;;3.08;;
43652;SDS011;29249;56.078;92.850;2022-07-09T01:38:27;7.05;;;3.47;;
43652;SDS011;29249;56.078;92.850;2022-07-09T01:40:52;4.45;;;3.05;;
43652;SDS011;29249;56.078;92.850;2022-07-09T01:43:18;4.80;;;3.00;;
43652;SDS011;29249;56.078;92.850;2022-07-09T01:45:44;4.78;;;3.45;;
43652;SDS011;29249;56.078;92.850;2022-07-09T01:48:10;4.05;;;3.10;;
43652;SDS011;29249;56.078;92.850;2022-07-09T01:50:36;4.63;;;3.00;;
43652;SDS011;29249;56.078;92.850;2022-07-09T01:53:01;3.40;;;3.05;;
43652;SDS011;29249;56.078;92.850;2022-07-09T01:55:27;3.47;;;3.00;;
43652;SDS011;29249;56.078;92.850;2022-07-09T01:57:53;6.22;;;4.15;;
43652;SDS011;29249;56.078;92.850;2022-07-09T02:00:19;4.40;;;3.13;;
43652;SDS011;29249;56.078;92.850;2022-07-09T02:02:45;4.75;;;3.40;;
43652;SDS011;29249;56.078;92.850;2022-07-09T02:05:11;5.25;;;3.10;;
43652;SDS011;29249;56.078;92.850;2022-07-09T02:07:38;5.03;;;3.17;;
43652;SDS011;29249;56.078;92.850;2022-07-09T02:10:04;8.25;;;4.30;;
43652;SDS011;29249;56.078;92.850;2022-07-09T02:12:30;5.15;;;3.55;;
43652;SDS011;29249;56.078;92.850;2022-07-09T02:14:56;4.32;;;3.30;;
43652;SDS011;29249;56.078;92.850;2022-07-09T02:17:22;6.28;;;3.70;;
43652;SDS011;29249;56.078;92.850;2022-07-09T02:19:48;5.65;;;3.92;;
43652;SDS011;29249;56.078;92.850;2022-07-09T02:22:14;4.78;;;3.78;;
43652;SDS011;29249;56.078;92.850;2022-07-09T02:24:40;5.15;;;3.20;;
43652;SDS011;29249;56.078;92.850;2022-07-09T02:27:06;6.07;;;3.45;;
43652;SDS011;29249;56.078;92.850;2022-07-09T02:29:32;5.30;;;3.33;;
43652;SDS011;29249;56.078;92.850;2022-07-09T02:31:58;6.45;;;3.83;;
43652;SDS011;29249;56.078;92.850;2022-07-09T02:34:24;5.57;;;2.88;;
43652;SDS011;29249;56.078;92.850;2022-07-09T02:36:50;9.38;;;3.67;;
43652;SDS011;29249;56.078;92.850;2022-07-09T02:39:17;5.50;;;2.70;;
43652;SDS011;29249;56.078;92.850;2022-07-09T02:41:43;8.75;;;3.28;;
43652;SDS011;29249;56.078;92.850;2022-07-09T02:44:09;4.05;;;2.92;;
43652;SDS011;29249;56.078;92.850;2022-07-09T02:46:35;6.05;;;3.30;;
43652;SDS011;29249;56.078;92.850;2022-07-09T02:49:00;7.20;;;3.30;;
43652;SDS011;29249;56.078;92.850;2022-07-09T02:51:26;6.10;;;2.83;;
43652;SDS011;29249;56.078;92.850;2022-07-09T02:53:52;3.40;;;2.67;;
43652;SDS011;29249;56.078;92.850;2022-07-09T02:56:18;4.38;;;2.67;;
43652;SDS011;29249;56.078;92.850;2022-07-09T02:58:44;6.15;;;3.13;;
43652;SDS011;29249;56.078;92.850;2022-07-09T03:01:09;4.13;;;2.60;;
43652;SDS011;29249;56.078;92.850;2022-07-09T03:03:35;2.80;;;2.55;;
43652;SDS011;29249;56.078;92.850;2022-07-09T03:06:02;5.28;;;2.72;;
43652;SDS011;29249;56.078;92.850;2022-07-09T03:08:28;3.67;;;2.92;;
43652;SDS011;29249;56.078;92.850;2022-07-09T03:10:54;5.07;;;3.83;;
43652;SDS011;29249;56.078;92.850;2022-07-09T03:13:20;5.38;;;3.25;;
43652;SDS011;29249;56.078;92.850;2022-07-09T03:15:46;2.75;;;2.25;;
43652;SDS011;29249;56.078;92.850;2022-07-09T03:18:12;2.85;;;2.55;;
43652;SDS011;29249;56.078;92.850;2022-07-09T03:20:38;3.63;;;2.35;;
43652;SDS011;29249;56.078;92.850;2022-07-09T03:23:04;7.13;;;2.90;;
43652;SDS011;29249;56.078;92.850;2022-07-09T03:25:30;3.53;;;2.25;;
43652;SDS011;29249;56.078;92.850;2022-07-09T03:27:56;2.88;;;2.50;;
43652;SDS011;29249;56.078;92.850;2022-07-09T03:30:22;6.35;;;2.83;;
43652;SDS011;29249;56.078;92.850;2022-07-09T03:32:48;2.22;;;2.03;;
43652;SDS011;29249;56.078;92.850;2022-07-09T03:35:15;2.50;;;2.30;;
43652;SDS011;29249;56.078;92.850;2022-07-09T03:37:41;2.70;;;2.03;;
43652;SDS011;29249;56.078;92.850;2022-07-09T03:40:07;3.90;;;2.35;;
43652;SDS011;29249;56.078;92.850;2022-07-09T03:42:33;2.35;;;2.15;;
43652;SDS011;29249;56.078;92.850;2022-07-09T03:44:59;3.50;;;1.90;;
43652;SDS011;29249;56.078;92.850;2022-07-09T03:47:25;2.53;;;2.30;;
43652;SDS011;29249;56.078;92.850;2022-07-09T03:49:51;2.03;;;1.90;;
43652;SDS011;29249;56.078;92.850;2022-07-09T03:52:17;5.68;;;2.20;;
43652;SDS011;29249;56.078;92.850;2022-07-09T03:54:43;2.72;;;2.53;;
43652;SDS011;29249;56.078;92.850;2022-07-09T03:57:09;2.65;;;2.42;;
43652;SDS011;29249;56.078;92.850;2022-07-09T03:59:35;3.00;;;2.70;;
43652;SDS011;29249;56.078;92.850;2022-07-09T04:02:01;2.42;;;2.33;;
43652;SDS011;29249;56.078;92.850;2022-07-09T04:04:27;3.65;;;2.47;;
43652;SDS011;29249;56.078;92.850;2022-07-09T04:06:53;2.40;;;2.20;;
43652;SDS011;29249;56.078;92.850;2022-07-09T04:09:19;5.07;;;2.38;;
43652;SDS011;29249;56.078;92.850;2022-07-09T04:11:45;2.70;;;2.50;;
43652;SDS011;29249;56.078;92.850;2022-07-09T04:14:10;2.40;;;2.20;;
43652;SDS011;29249;56.078;92.850;2022-07-09T04:16:36;2.58;;;2.20;;
43652;SDS011;29249;56.078;92.850;2022-07-09T04:19:02;2.88;;;2.47;;
43652;SDS011;29249;56.078;92.850;2022-07-09T04:21:28;2.45;;;2.25;;
43652;SDS011;29249;56.078;92.850;2022-07-09T04:23:53;2.85;;;2.65;;
43652;SDS011;29249;56.078;92.850;2022-07-09T04:26:19;2.60;;;2.40;;
43652;SDS011;29249;56.078;92.850;2022-07-09T04:28:45;2.80;;;2.60;;
43652;SDS011;29249;56.078;92.850;2022-07-09T04:31:11;2.58;;;2.38;;
43652;SDS011;29249;56.078;92.850;2022-07-09T04:33:37;3.85;;;3.17;;
43652;SDS011;29249;56.078;92.850;2022-07-09T04:36:03;3.10;;;2.60;;
43652;SDS011;29249;56.078;92.850;2022-07-09T04:38:29;2.90;;;2.53;;
43652;SDS011;29249;56.078;92.850;2022-07-09T04:40:55;2.60;;;2.40;;
43652;SDS011;29249;56.078;92.850;2022-07-09T04:43:21;3.53;;;2.58;;
43652;SDS011;29249;56.078;92.850;2022-07-09T04:45:47;2.88;;;2.60;;
43652;SDS011;29249;56.078;92.850;2022-07-09T04:48:12;2.60;;;2.40;;
43652;SDS011;29249;56.078;92.850;2022-07-09T04:50:40;4.07;;;2.90;;
43652;SDS011;29249;56.078;92.850;2022-07-09T04:53:06;3.50;;;3.17;;
43652;SDS011;29249;56.078;92.850;2022-07-09T04:55:31;2.90;;;2.70;;
43652;SDS011;29249;56.078;92.850;2022-07-09T04:57:57;3.22;;;2.92;;
43652;SDS011;29249;56.078;92.850;2022-07-09T05:00:23;5.47;;;3.30;;
43652;SDS011;29249;56.078;92.850;2022-07-09T05:02:49;3.10;;;2.90;;
43652;SDS011;29249;56.078;92.850;2022-07-09T05:05:15;4.45;;;3.30;;
43652;SDS011;29249;56.078;92.850;2022-07-09T05:07:41;3.33;;;3.03;;
43652;SDS011;29249;56.078;92.850;2022-07-09T05:10:07;3.08;;;2.88;;
43652;SDS011;29249;56.078;92.850;2022-07-09T05:12:33;2.83;;;2.63;;
43652;SDS011;29249;56.078;92.850;2022-07-09T05:14:58;5.30;;;3.83;;
43652;SDS011;29249;56.078;92.850;2022-07-09T05:17:24;3.53;;;3.13;;
43652;SDS011;29249;56.078;92.850;2022-07-09T05:19:50;3.40;;;3.10;;
43652;SDS011;29249;56.078;92.850;2022-07-09T05:22:16;4.68;;;3.10;;
43652;SDS011;29249;56.078;92.850;2022-07-09T05:24:42;3.20;;;3.00;;
43652;SDS011;29249;56.078;92.850;2022-07-09T05:27:08;2.78;;;2.40;;
43652;SDS011;29249;56.078;92.850;2022-07-09T05:29:34;2.70;;;2.50;;
43652;SDS011;29249;56.078;92.850;2022-07-09T05:32:01;2.90;;;2.70;;
43652;SDS011;29249;56.078;92.850;2022-07-09T05:34:28;4.53;;;2.70;;
43652;SDS011;29249;56.078;92.850;2022-07-09T05:36:54;3.00;;;2.80;;
43652;SDS011;29249;56.078;92.850;2022-07-09T05:39:20;3.45;;;2.28;;
43652;SDS011;29249;56.078;92.850;2022-07-09T05:41:48;3.08;;;2.40;;
43652;SDS011;29249;56.078;92.850;2022-07-09T05:44:14;2.83;;;2.60;;
43652;SDS011;29249;56.078;92.850;2022-07-09T05:46:40;2.60;;;2.40;;
43652;SDS011;29249;56.078;92.850;2022-07-09T05:49:06;3.13;;;2.80;;
43652;SDS011;29249;56.078;92.850;2022-07-09T05:51:32;4.07;;;2.70;;
43652;SDS011;29249;56.078;92.850;2022-07-09T05:53:58;2.47;;;2.28;;
43652;SDS011;29249;56.078;92.850;2022-07-09T05:56:24;2.22;;;2.03;;
43652;SDS011;29249;56.078;92.850;2022-07-09T05:58:51;2.33;;;2.15;;
43652;SDS011;29249;56.078;92.850;2022-07-09T06:01:17;2.03;;;1.90;;
43652;SDS011;29249;56.078;92.850;2022-07-09T06:03:43;2.67;;;2.42;;
43652;SDS011;29249;56.078;92.850;2022-07-09T06:06:09;2.25;;;2.05;;
43652;SDS011;29249;56.078;92.850;2022-07-09T06:08:35;2.10;;;1.90;;
43652;SDS011;29249;56.078;92.850;2022-07-09T06:11:02;2.22;;;1.77;;
43652;SDS011;29249;56.078;92.850;2022-07-09T06:13:28;6.13;;;2.08;;
43652;SDS011;29249;56.078;92.850;2022-07-09T06:15:54;3.53;;;1.67;;
43652;SDS011;29249;56.078;92.850;2022-07-09T06:18:20;3.22;;;2.15;;
43652;SDS011;29249;56.078;92.850;2022-07-09T06:20:46;2.47;;;2.13;;
43652;SDS011;29249;56.078;92.850;2022-07-09T06:23:12;2.13;;;1.88;;
43652;SDS011;29249;56.078;92.850;2022-07-09T06:25:38;3.72;;;2.05;;
43652;SDS011;29249;56.078;92.850;2022-07-09T06:28:05;5.13;;;2.17;;
43652;SDS011;29249;56.078;92.850;2022-07-09T06:30:31;2.42;;;1.80;;
43652;SDS011;29249;56.078;92.850;2022-07-09T06:32:57;2.83;;;2.45;;
43652;SDS011;29249;56.078;92.850;2022-07-09T06:35:24;1.88;;;1.67;;
43652;SDS011;29249;56.078;92.850;2022-07-09T06:37:50;2.60;;;1.83;;
43652;SDS011;29249;56.078;92.850;2022-07-09T06:40:16;5.47;;;1.90;;
43652;SDS011;29249;56.078;92.850;2022-07-09T06:42:41;2.75;;;1.60;;
43652;SDS011;29249;56.078;92.850;2022-07-09T06:45:20;3.42;;;2.47;;
43652;SDS011;29249;56.078;92.850;2022-07-09T06:47:46;7.00;;;4.47;;
43652;SDS011;29249;56.078;92.850;2022-07-09T06:50:12;2.47;;;1.95;;
43652;SDS011;29249;56.078;92.850;2022-07-09T06:52:38;16.17;;;2.75;;
43652;SDS011;29249;56.078;92.850;2022-07-09T06:55:04;5.10;;;2.28;;
43652;SDS011;29249;56.078;92.850;2022-07-09T06:57:30;2.88;;;2.30;;
43652;SDS011;29249;56.078;92.850;2022-07-09T06:59:56;3.85;;;1.77;;
43652;SDS011;29249;56.078;92.850;2022-07-09T07:02:22;3.20;;;1.65;;
43652;SDS011;29249;56.078;92.850;2022-07-09T07:04:48;2.10;;;1.60;;
43652;SDS011;29249;56.078;92.850;2022-07-09T07:07:13;2.25;;;1.60;;
43652;SDS011;29249;56.078;92.850;2022-07-09T07:09:39;2.28;;;1.65;;
43652;SDS011;29249;56.078;92.850;2022-07-09T07:12:05;3.70;;;1.60;;
43652;SDS011;29249;56.078;92.850;2022-07-09T07:14:32;2.35;;;1.83;;
43652;SDS011;29249;56.078;92.850;2022-07-09T07:16:57;2.20;;;2.00;;
43652;SDS011;29249;56.078;92.850;2022-07-09T07:19:23;2.65;;;1.75;;
43652;SDS011;29249;56.078;92.850;2022-07-09T07:21:49;4.10;;;2.10;;
43652;SDS011;29249;56.078;92.850;2022-07-09T07:24:15;2.85;;;1.77;;
43652;SDS011;29249;56.078;92.850;2022-07-09T07:26:41;1.80;;;1.60;;
43652;SDS011;29249;56.078;92.850;2022-07-09T07:29:07;3.22;;;1.90;;
43652;SDS011;29249;56.078;92.850;2022-07-09T07:31:33;1.80;;;1.60;;
43652;SDS011;29249;56.078;92.850;2022-07-09T07:34:00;2.08;;;1.60;;
43652;SDS011;29249;56.078;92.850;2022-07-09T07:36:26;14.20;;;8.05;;
43652;SDS011;29249;56.078;92.850;2022-07-09T07:38:52;7.63;;;4.72;;
43652;SDS011;29249;56.078;92.850;2022-07-09T07:41:18;5.78;;;2.83;;
43652;SDS011;29249;56.078;92.850;2022-07-09T07:43:44;5.97;;;3.03;;
43652;SDS011;29249;56.078;92.850;2022-07-09T07:46:10;7.45;;;6.57;;
43652;SDS011;29249;56.078;92.850;2022-07-09T07:48:37;2.97;;;2.67;;
43652;SDS011;29249;56.078;92.850;2022-07-09T07:51:06;3.53;;;1.90;;
43652;SDS011;29249;56.078;92.850;2022-07-09T07:53:33;4.63;;;2.03;;
43652;SDS011;29249;56.078;92.850;2022-07-09T07:56:02;9.65;;;4.80;;
43652;SDS011;29249;56.078;92.850;2022-07-09T07:58:29;4.20;;;3.60;;
43652;SDS011;29249;56.078;92.850;2022-07-09T08:00:55;3.65;;;2.17;;
43652;SDS011;29249;56.078;92.850;2022-07-09T08:03:21;4.82;;;1.90;;
43652;SDS011;29249;56.078;92.850;2022-07-09T08:05:47;3.05;;;2.22;;
43652;SDS011;29249;56.078;92.850;2022-07-09T08:08:13;3.35;;;2.38;;
43652;SDS011;29249;56.078;92.850;2022-07-09T08:10:40;4.57;;;2.38;;
43652;SDS011;29249;56.078;92.850;2022-07-09T08:13:06;2.08;;;1.88;;
43652;SDS011;29249;56.078;92.850;2022-07-09T08:15:32;6.88;;;1.88;;
43652;SDS011;29249;56.078;92.850;2022-07-09T08:17:58;5.55;;;2.97;;
43652;SDS011;29249;56.078;92.850;2022-07-09T08:20:23;2.30;;;1.83;;
43652;SDS011;29249;56.078;92.850;2022-07-09T08:22:49;4.65;;;1.83;;
43652;SDS011;29249;56.078;92.850;2022-07-09T08:25:16;3.05;;;2.10;;
43652;SDS011;29249;56.078;92.850;2022-07-09T08:27:42;2.00;;;1.80;;
43652;SDS011;29249;56.078;92.850;2022-07-09T08:30:08;1.80;;;1.55;;
43652;SDS011;29249;56.078;92.850;2022-07-09T08:32:35;3.47;;;1.83;;
43652;SDS011;29249;56.078;92.850;2022-07-09T08:35:01;3.08;;;2.00;;
43652;SDS011;29249;56.078;92.850;2022-07-09T08:37:27;2.17;;;1.95;;
43652;SDS011;29249;56.078;92.850;2022-07-09T08:39:53;2.13;;;1.92;;
43652;SDS011;29249;56.078;92.850;2022-07-09T08:42:19;2.38;;;1.92;;
43652;SDS011;29249;56.078;92.850;2022-07-09T08:44:46;3.10;;;2.13;;
43652;SDS011;29249;56.078;92.850;2022-07-09T08:47:14;15.57;;;2.45;;
43652;SDS011;29249;56.078;92.850;2022-07-09T08:49:41;3.30;;;2.13;;
43652;SDS011;29249;56.078;92.850;2022-07-09T08:52:08;2.03;;;1.83;;
43652;SDS011;29249;56.078;92.850;2022-07-09T08:54:35;2.13;;;1.88;;
43652;SDS011;29249;56.078;92.850;2022-07-09T08:57:01;3.40;;;2.08;;
43652;SDS011;29249;56.078;92.850;2022-07-09T08:59:32;3.75;;;2.30;;
43652;SDS011;29249;56.078;92.850;2022-07-09T09:02:05;2.28;;;1.70;;
43652;SDS011;29249;56.078;92.850;2022-07-09T09:04:32;3.13;;;2.03;;
43652;SDS011;29249;56.078;92.850;2022-07-09T09:06:59;2.47;;;1.65;;
43652;SDS011;29249;56.078;92.850;2022-07-09T09:09:37;2.25;;;1.70;;
43652;SDS011;29249;56.078;92.850;2022-07-09T09:12:03;2.03;;;1.83;;
43652;SDS011;29249;56.078;92.850;2022-07-09T09:14:29;4.65;;;1.88;;
43652;SDS011;29249;56.078;92.850;2022-07-09T09:17:02;2.25;;;2.03;;
43652;SDS011;29249;56.078;92.850;2022-07-09T09:19:35;2.05;;;1.85;;
43652;SDS011;29249;56.078;92.850;2022-07-09T09:22:01;2.47;;;1.88;;
43652;SDS011;29249;56.078;92.850;2022-07-09T09:24:27;3.60;;;2.22;;
43652;SDS011;29249;56.078;92.850;2022-07-09T09:27:02;5.40;;;4.40;;
43652;SDS011;29249;56.078;92.850;2022-07-09T09:29:28;5.03;;;3.40;;
43652;SDS011;29249;56.078;92.850;2022-07-09T09:31:54;8.57;;;4.53;;
43652;SDS011;29249;56.078;92.850;2022-07-09T09:34:21;2.67;;;2.47;;
43652;SDS011;29249;56.078;92.850;2022-07-09T09:36:51;4.07;;;2.10;;
43652;SDS011;29249;56.078;92.850;2022-07-09T09:39:24;2.50;;;1.92;;
43652;SDS011;29249;56.078;92.850;2022-07-09T09:41:52;5.05;;;3.47;;
43652;SDS011;29249;56.078;92.850;2022-07-09T09:44:28;2.88;;;2.42;;
43652;SDS011;29249;56.078;92.850;2022-07-09T09:46:57;3.42;;;2.38;;
43652;SDS011;29249;56.078;92.850;2022-07-09T09:49:23;4.35;;;3.20;;
43652;SDS011;29249;56.078;92.850;2022-07-09T09:54:33;15.90;;;14.40;;
43652;SDS011;29249;56.078;92.850;2022-07-09T09:57:00;11.43;;;10.07;;
43652;SDS011;29249;56.078;92.850;2022-07-09T09:59:30;27.08;;;24.13;;
43652;SDS011;29249;56.078;92.850;2022-07-09T10:01:56;5.57;;;4.90;;
43652;SDS011;29249;56.078;92.850;2022-07-09T10:04:22;3.20;;;2.90;;
43652;SDS011;29249;56.078;92.850;2022-07-09T10:06:49;2.25;;;1.92;;
43652;SDS011;29249;56.078;92.850;2022-07-09T10:09:15;4.05;;;2.70;;
43652;SDS011;29249;56.078;92.850;2022-07-09T10:11:45;3.60;;;2.90;;
43652;SDS011;29249;56.078;92.850;2022-07-09T10:14:18;3.45;;;2.75;;
43652;SDS011;29249;56.078;92.850;2022-07-09T10:16:55;2.58;;;2.10;;
43652;SDS011;29249;56.078;92.850;2022-07-09T10:19:25;5.05;;;2.95;;
43652;SDS011;29249;56.078;92.850;2022-07-09T10:21:52;6.35;;;3.60;;
43652;SDS011;29249;56.078;92.850;2022-07-09T10:24:30;4.45;;;3.60;;
43652;SDS011;29249;56.078;92.850;2022-07-09T10:27:07;7.55;;;4.00;;
43652;SDS011;29249;56.078;92.850;2022-07-09T10:29:35;6.85;;;4.13;;
43652;SDS011;29249;56.078;92.850;2022-07-09T10:32:02;9.15;;;7.90;;
43652;SDS011;29249;56.078;92.850;2022-07-09T10:37:14;10.57;;;6.82;;
43652;SDS011;29249;56.078;92.850;2022-07-09T10:39:40;5.45;;;3.63;;
43652;SDS011;29249;56.078;92.850;2022-07-09T10:42:17;10.43;;;7.95;;
43652;SDS011;29249;56.078;92.850;2022-07-09T10:44:45;4.97;;;3.67;;
43652;SDS011;29249;56.078;92.850;2022-07-09T10:47:12;2.70;;;2.35;;
43652;SDS011;29249;56.078;92.850;2022-07-09T10:49:39;8.90;;;8.00;;
43652;SDS011;29249;56.078;92.850;2022-07-09T10:52:05;4.47;;;3.90;;
43652;SDS011;29249;56.078;92.850;2022-07-09T10:54:32;5.65;;;3.85;;
43652;SDS011;29249;56.078;92.850;2022-07-09T10:56:59;6.35;;;5.45;;
43652;SDS011;29249;56.078;92.850;2022-07-09T10:59:25;5.53;;;4.30;;
43652;SDS011;29249;56.078;92.850;2022-07-09T11:01:51;5.47;;;4.20;;
43652;SDS011;29249;56.078;92.850;2022-07-09T11:06:50;5.18;;;4.53;;
43652;SDS011;29249;56.078;92.850;2022-07-09T11:09:17;5.68;;;5.15;;
43652;SDS011;29249;56.078;92.850;2022-07-09T11:11:43;5.93;;;3.85;;
43652;SDS011;29249;56.078;92.850;2022-07-09T11:14:10;4.80;;;3.45;;
43652;SDS011;29249;56.078;92.850;2022-07-09T11:16:37;6.15;;;4.75;;
43652;SDS011;29249;56.078;92.850;2022-07-09T11:19:16;6.40;;;4.70;;
43652;SDS011;29249;56.078;92.850;2022-07-09T11:21:44;10.23;;;4.18;;
43652;SDS011;29249;56.078;92.850;2022-07-09T11:24:19;9.65;;;3.85;;
43652;SDS011;29249;56.078;92.850;2022-07-09T11:26:46;6.75;;;4.57;;
43652;SDS011;29249;56.078;92.850;2022-07-09T11:29:13;5.00;;;4.30;;
43652;SDS011;29249;56.078;92.850;2022-07-09T11:31:49;6.32;;;3.90;;
43652;SDS011;29249;56.078;92.850;2022-07-09T11:34:17;7.10;;;3.70;;
43652;SDS011;29249;56.078;92.850;2022-07-09T11:36:47;9.10;;;3.60;;
43652;SDS011;29249;56.078;92.850;2022-07-09T11:39:27;3.55;;;2.80;;
43652;SDS011;29249;56.078;92.850;2022-07-09T11:41:54;5.13;;;2.95;;
43652;SDS011;29249;56.078;92.850;2022-07-09T11:44:31;3.55;;;2.97;;
43652;SDS011;29249;56.078;92.850;2022-07-09T11:47:02;5.78;;;2.80;;
43652;SDS011;29249;56.078;92.850;2022-07-09T11:49:36;3.28;;;2.65;;
43652;SDS011;29249;56.078;92.850;2022-07-09T11:52:04;3.83;;;2.40;;
43652;SDS011;29249;56.078;92.850;2022-07-09T11:57:22;3.17;;;2.53;;
43652;SDS011;29249;56.078;92.850;2022-07-09T11:59:48;10.07;;;4.85;;
43652;SDS011;29249;56.078;92.850;2022-07-09T12:04:52;9.68;;;6.93;;
43652;SDS011;29249;56.078;92.850;2022-07-09T12:07:18;9.35;;;7.43;;
43652;SDS011;29249;56.078;92.850;2022-07-09T12:09:45;6.07;;;5.25;;
43652;SDS011;29249;56.078;92.850;2022-07-09T12:12:11;13.30;;;9.45;;
43652;SDS011;29249;56.078;92.850;2022-07-09T12:14:37;5.57;;;3.88;;
43652;SDS011;29249;56.078;92.850;2022-07-09T12:17:02;5.85;;;4.55;;
43652;SDS011;29249;56.078;92.850;2022-07-09T12:19:28;6.20;;;5.30;;
43652;SDS011;29249;56.078;92.850;2022-07-09T12:21:54;5.50;;;4.65;;
43652;SDS011;29249;56.078;92.850;2022-07-09T12:24:20;5.30;;;4.43;;
43652;SDS011;29249;56.078;92.850;2022-07-09T12:26:46;5.22;;;4.15;;
43652;SDS011;29249;56.078;92.850;2022-07-09T12:29:11;5.15;;;4.40;;
43652;SDS011;29249;56.078;92.850;2022-07-09T12:31:37;10.93;;;4.65;;
43652;SDS011;29249;56.078;92.850;2022-07-09T12:34:04;7.47;;;4.70;;
43652;SDS011;29249;56.078;92.850;2022-07-09T12:36:30;7.18;;;3.65;;
43652;SDS011;29249;56.078;92.850;2022-07-09T12:38:56;4.85;;;3.83;;
43652;SDS011;29249;56.078;92.850;2022-07-09T12:41:22;4.00;;;3.40;;
43652;SDS011;29249;56.078;92.850;2022-07-09T12:43:48;6.40;;;4.80;;
43652;SDS011;29249;56.078;92.850;2022-07-09T12:46:14;6.45;;;5.15;;
43652;SDS011;29249;56.078;92.850;2022-07-09T12:48:39;7.70;;;5.00;;
43652;SDS011;29249;56.078;92.850;2022-07-09T12:51:05;9.65;;;5.18;;
43652;SDS011;29249;56.078;92.850;2022-07-09T12:53:31;5.60;;;4.82;;
43652;SDS011;29249;56.078;92.850;2022-07-09T12:55:57;7.20;;;5.40;;
43652;SDS011;29249;56.078;92.850;2022-07-09T12:58:23;6.60;;;5.40;;
43652;SDS011;29249;56.078;92.850;2022-07-09T13:00:50;9.32;;;6.03;;
43652;SDS011;29249;56.078;92.850;2022-07-09T13:03:16;13.00;;;7.47;;
43652;SDS011;29249;56.078;92.850;2022-07-09T13:05:42;11.23;;;7.20;;
43652;SDS011;29249;56.078;92.850;2022-07-09T13:08:07;7.15;;;5.47;;
43652;SDS011;29249;56.078;92.850;2022-07-09T13:10:33;8.18;;;5.30;;
43652;SDS011;29249;56.078;92.850;2022-07-09T13:12:59;10.88;;;4.05;;
43652;SDS011;29249;56.078;92.850;2022-07-09T13:15:25;9.20;;;3.60;;
43652;SDS011;29249;56.078;92.850;2022-07-09T13:17:51;8.18;;;4.53;;
43652;SDS011;29249;56.078;92.850;2022-07-09T13:20:17;6.90;;;4.68;;
43652;SDS011;29249;56.078;92.850;2022-07-09T13:22:43;8.90;;;4.05;;
43652;SDS011;29249;56.078;92.850;2022-07-09T13:25:08;7.22;;;4.03;;
43652;SDS011;29249;56.078;92.850;2022-07-09T13:27:36;12.00;;;4.88;;
43652;SDS011;29249;56.078;92.850;2022-07-09T13:30:03;8.20;;;5.50;;
43652;SDS011;29249;56.078;92.850;2022-07-09T13:32:29;12.80;;;6.38;;
43652;SDS011;29249;56.078;92.850;2022-07-09T13:34:55;10.43;;;6.53;;
43652;SDS011;29249;56.078;92.850;2022-07-09T13:37:21;11.73;;;6.20;;
43652;SDS011;29249;56.078;92.850;2022-07-09T13:39:47;9.82;;;6.00;;
43652;SDS011;29249;56.078;92.850;2022-07-09T13:42:13;10.07;;;5.75;;
43652;SDS011;29249;56.078;92.850;2022-07-09T13:44:39;15.65;;;9.40;;
43652;SDS011;29249;56.078;92.850;2022-07-09T13:47:05;22.13;;;12.95;;
43652;SDS011;29249;56.078;92.850;2022-07-09T13:49:32;17.98;;;9.88;;
43652;SDS011;29249;56.078;92.850;2022-07-09T13:51:57;20.95;;;12.27;;
43652;SDS011;29249;56.078;92.850;2022-07-09T13:54:23;25.08;;;16.55;;
43652;SDS011;29249;56.078;92.850;2022-07-09T13:56:49;35.50;;;21.15;;
43652;SDS011;29249;56.078;92.850;2022-07-09T13:59:15;43.70;;;25.77;;
43652;SDS011;29249;56.078;92.850;2022-07-09T14:01:41;40.47;;;23.17;;
43652;SDS011;29249;56.078;92.850;2022-07-09T14:04:07;46.08;;;22.70;;
43652;SDS011;29249;56.078;92.850;2022-07-09T14:06:33;31.27;;;19.13;;
43652;SDS011;29249;56.078;92.850;2022-07-09T14:09:00;23.83;;;14.10;;
43652;SDS011;29249;56.078;92.850;2022-07-09T14:11:27;23.95;;;13.65;;
43652;SDS011;29249;56.078;92.850;2022-07-09T14:13:53;33.00;;;14.30;;
43652;SDS011;29249;56.078;92.850;2022-07-09T14:16:19;24.10;;;12.70;;
43652;SDS011;29249;56.078;92.850;2022-07-09T14:18:44;47.17;;;16.35;;
43652;SDS011;29249;56.078;92.850;2022-07-09T14:21:10;32.22;;;14.73;;
43652;SDS011;29249;56.078;92.850;2022-07-09T14:23:36;32.28;;;16.27;;
43652;SDS011;29249;56.078;92.850;2022-07-09T14:26:02;37.53;;;16.92;;
43652;SDS011;29249;56.078;92.850;2022-07-09T14:28:29;53.83;;;18.75;;
43652;SDS011;29249;56.078;92.850;2022-07-09T14:30:56;45.60;;;21.70;;
43652;SDS011;29249;56.078;92.850;2022-07-09T14:33:22;38.65;;;21.95;;
43652;SDS011;29249;56.078;92.850;2022-07-09T14:35:48;47.60;;;20.85;;
43652;SDS011;29249;56.078;92.850;2022-07-09T14:38:14;46.97;;;22.92;;
43652;SDS011;29249;56.078;92.850;2022-07-09T14:40:40;47.33;;;26.92;;